Time;durP1;ratioP1;P1;durP2;ratioP2;P2;SDS_P1;SDS_P2;PMS_P1;PMS_P2;Temp;Humidity;BMP_temperature;BMP_pressure;BME280_temperature;BME280_humidity;BME280_pressure;Samples;Min_cycle;Max_cycle;Signal;HPM_P1;HPM_P2
2021/04/18 00:04:45;;;;;;;12.10;4.32;;;;;;;-146.18;100.00;67994.34;10004719;29;20079;-69
2021/04/18 00:09:43;;;;;;;16.70;4.60;;;;;;;-146.18;100.00;67994.34;9996892;29;20058;-68
2021/04/18 00:14:39;;;;;;;12.98;4.80;;;;;;;-146.18;100.00;67994.34;9991138;29;20286;-69
2021/04/18 00:19:35;;;;;;;13.40;5.85;;;;;;;-146.18;100.00;67994.34;9989755;29;20057;-68
2021/04/18 00:24:31;;;;;;;9.65;4.18;;;;;;;-146.18;100.00;67994.34;9988098;29;20043;-68
2021/04/18 00:29:27;;;;;;;12.20;4.25;;;;;;;-146.18;100.00;67994.34;9992747;29;20558;-68
2021/04/18 00:34:23;;;;;;;16.17;5.00;;;;;;;-146.18;100.00;67994.34;9985522;29;20565;-67
2021/04/18 00:39:19;;;;;;;13.82;4.68;;;;;;;-146.18;100.00;67994.34;9986577;29;20100;-68
2021/04/18 00:44:15;;;;;;;14.30;5.32;;;;;;;-146.18;100.00;67994.34;9989319;29;20059;-68
2021/04/18 00:49:11;;;;;;;19.58;5.43;;;;;;;-146.18;100.00;67994.34;9989663;29;20131;-68
2021/04/18 00:54:07;;;;;;;12.20;4.70;;;;;;;-146.18;100.00;67994.34;9983521;29;20051;-69
2021/04/18 00:59:04;;;;;;;12.43;5.30;;;;;;;-146.18;100.00;67994.34;9997011;29;20565;-68
2021/04/18 01:04:00;;;;;;;11.55;4.47;;;;;;;-146.18;100.00;67994.34;9993463;29;20076;-67
2021/04/18 01:08:56;;;;;;;13.45;4.90;;;;;;;-146.18;100.00;67994.34;9998723;29;20072;-68
2021/04/18 01:13:52;;;;;;;12.73;4.70;;;;;;;-146.18;100.00;67994.34;10002499;29;20051;-68
2021/04/18 01:18:48;;;;;;;9.38;4.57;;;;;;;-146.18;100.00;67994.34;9999096;29;20127;-68
2021/04/18 01:23:44;;;;;;;13.05;5.07;;;;;;;-146.18;100.00;67994.34;9996213;29;20047;-68
2021/04/18 01:28:41;;;;;;;11.40;5.25;;;;;;;-146.18;100.00;67994.34;9997364;29;20054;-68
2021/04/18 01:33:37;;;;;;;9.65;4.15;;;;;;;-146.18;100.00;67994.34;10001678;29;20055;-68
2021/04/18 01:38:34;;;;;;;14.50;5.13;;;;;;;-146.18;100.00;67994.34;9998551;29;20232;-68
2021/04/18 01:43:31;;;;;;;10.80;4.22;;;;;;;-146.18;100.00;67994.34;9998350;29;20044;-68
2021/04/18 01:48:27;;;;;;;14.25;4.43;;;;;;;-146.18;100.00;67994.34;10002696;29;20079;-69
2021/04/18 01:53:23;;;;;;;7.88;3.90;;;;;;;-146.18;100.00;67994.34;9990665;29;20044;-68
2021/04/18 01:58:19;;;;;;;14.20;4.10;;;;;;;-146.18;100.00;67994.34;9989987;29;20052;-68
2021/04/18 02:03:15;;;;;;;8.13;3.83;;;;;;;-146.18;100.00;67994.34;9999222;29;20084;-68
2021/04/18 02:08:11;;;;;;;14.20;4.50;;;;;;;-146.18;100.00;67994.34;9997342;29;20054;-69
2021/04/18 02:13:07;;;;;;;12.70;4.03;;;;;;;-146.18;100.00;67994.34;9996739;29;20502;-68
2021/04/18 02:18:03;;;;;;;12.25;4.07;;;;;;;-146.18;100.00;67994.34;9998699;29;20060;-68
2021/04/18 02:22:59;;;;;;;9.98;3.60;;;;;;;-146.18;100.00;67994.34;9988899;29;20135;-68
2021/04/18 02:27:55;;;;;;;10.02;3.75;;;;;;;-146.18;100.00;67994.34;9993440;29;20048;-68
2021/04/18 02:32:51;;;;;;;13.95;3.95;;;;;;;-146.18;100.00;67994.34;9993834;29;20040;-68
2021/04/18 02:37:48;;;;;;;10.43;3.65;;;;;;;-146.18;100.00;67994.34;10002328;29;20514;-68
2021/04/18 02:42:44;;;;;;;9.85;3.45;;;;;;;-146.18;100.00;67994.34;9999914;29;20041;-68
2021/04/18 02:47:40;;;;;;;9.75;3.10;;;;;;;-146.18;100.00;67994.34;10000805;29;20075;-68
2021/04/18 02:52:37;;;;;;;7.82;3.20;;;;;;;-146.18;100.00;67994.34;9999300;29;20459;-68
2021/04/18 02:57:33;;;;;;;10.23;3.40;;;;;;;-146.18;100.00;67994.34;9995509;29;20417;-68
2021/04/18 03:02:29;;;;;;;9.05;2.92;;;;;;;-146.18;100.00;67994.34;9995826;29;20051;-68
2021/04/18 03:07:25;;;;;;;13.27;3.30;;;;;;;-146.18;100.00;67994.34;9994818;29;20059;-68
2021/04/18 03:12:21;;;;;;;11.00;3.30;;;;;;;-146.18;100.00;67994.34;9992277;29;20122;-68
2021/04/18 03:17:17;;;;;;;13.18;3.45;;;;;;;-146.18;100.00;67994.34;9997244;29;20570;-68
2021/04/18 03:22:13;;;;;;;6.63;2.78;;;;;;;-146.18;100.00;67994.34;9993890;29;20052;-68
2021/04/18 03:27:09;;;;;;;11.68;3.40;;;;;;;-146.18;100.00;67994.34;9990612;29;20108;-69
2021/04/18 03:32:06;;;;;;;11.60;3.10;;;;;;;-146.18;100.00;67994.34;9990150;29;20059;-68
2021/04/18 03:37:02;;;;;;;7.82;3.05;;;;;;;-146.18;100.00;67994.34;9993618;29;20052;-68
2021/04/18 03:41:58;;;;;;;8.25;2.90;;;;;;;-146.18;100.00;67994.34;9996103;29;20511;-68
2021/04/18 03:46:54;;;;;;;20.77;3.47;;;;;;;-146.18;100.00;67994.34;9990542;29;20055;-69
2021/04/18 03:51:50;;;;;;;10.25;3.17;;;;;;;-146.18;100.00;67994.34;9997599;29;20044;-68
2021/04/18 03:56:46;;;;;;;11.30;3.28;;;;;;;-146.18;100.00;67994.34;9988160;29;20108;-68
2021/04/18 04:01:42;;;;;;;13.35;2.97;;;;;;;-146.18;100.00;67994.34;9987485;29;20104;-68
2021/04/18 04:06:39;;;;;;;8.60;3.33;;;;;;;-146.18;100.00;67994.34;9999323;29;20052;-68
2021/04/18 04:11:35;;;;;;;12.32;3.70;;;;;;;-146.18;100.00;67994.34;9987470;29;20059;-68
2021/04/18 04:16:31;;;;;;;10.43;2.75;;;;;;;-146.18;100.00;67994.34;9990838;29;20107;-68
2021/04/18 04:21:27;;;;;;;7.50;2.58;;;;;;;-146.18;100.00;67994.34;9989665;29;20056;-69
2021/04/18 04:26:24;;;;;;;8.85;2.90;;;;;;;-146.18;100.00;67994.34;10000246;29;20446;-68
2021/04/18 04:31:20;;;;;;;10.23;3.10;;;;;;;-146.18;100.00;67994.34;9992425;29;20044;-68
2021/04/18 04:36:16;;;;;;;10.45;3.20;;;;;;;-146.18;100.00;67994.34;10007975;29;20483;-68
2021/04/18 04:41:12;;;;;;;10.50;3.63;;;;;;;-146.18;100.00;67994.34;9982855;29;20051;-68
2021/04/18 04:46:08;;;;;;;10.13;3.55;;;;;;;-146.18;100.00;67994.34;9989528;29;20527;-67
2021/04/18 04:51:04;;;;;;;10.98;2.97;;;;;;;-146.18;100.00;67994.34;9980978;29;20219;-67
2021/04/18 04:56:00;;;;;;;11.35;2.97;;;;;;;-146.18;100.00;67994.34;9989622;29;20059;-67
2021/04/18 05:00:56;;;;;;;8.80;3.30;;;;;;;-146.18;100.00;67994.34;9990884;29;20406;-70
2021/04/18 05:05:53;;;;;;;8.65;3.47;;;;;;;-146.18;100.00;67994.34;9997506;29;20419;-70
2021/04/18 05:10:49;;;;;;;11.82;3.67;;;;;;;-146.18;100.00;67994.34;9998069;29;20056;-70
2021/04/18 05:15:45;;;;;;;13.13;3.92;;;;;;;-146.18;100.00;67994.34;9995121;29;20051;-69
2021/04/18 05:20:41;;;;;;;10.25;3.33;;;;;;;-146.18;100.00;67994.34;9995760;29;20426;-69
2021/04/18 05:25:37;;;;;;;7.93;3.17;;;;;;;-146.18;100.00;67994.34;9989985;29;20446;-68
2021/04/18 05:30:33;;;;;;;10.68;3.40;;;;;;;-146.18;100.00;67994.34;9988057;29;20052;-67
2021/04/18 05:35:35;;;;;;;9.40;3.17;;;;;;;-146.18;100.00;67994.34;9985022;29;20052;-68
2021/04/18 05:40:32;;;;;;;18.50;4.20;;;;;;;-146.18;100.00;67994.34;9994698;29;20426;-69
2021/04/18 05:45:27;;;;;;;10.55;3.50;;;;;;;-146.18;100.00;67994.34;9994450;29;20114;-68
2021/04/18 05:50:23;;;;;;;12.18;3.70;;;;;;;-146.18;100.00;67994.34;9984758;29;20072;-69
2021/04/18 05:55:19;;;;;;;12.50;3.90;;;;;;;-146.18;100.00;67994.34;9997247;29;20040;-69
2021/04/18 06:00:16;;;;;;;13.45;3.88;;;;;;;-146.18;100.00;67994.34;9993139;29;20055;-69
2021/04/18 06:05:12;;;;;;;12.63;4.00;;;;;;;-146.18;100.00;67994.34;9984484;29;20047;-69
2021/04/18 06:10:10;;;;;;;10.13;3.60;;;;;;;-146.18;100.00;67994.34;9997170;29;20051;-68
2021/04/18 06:15:07;;;;;;;13.10;4.35;;;;;;;-146.18;100.00;67994.34;9992436;29;20406;-68
2021/04/18 06:20:05;;;;;;;11.30;3.90;;;;;;;-146.18;100.00;67994.34;9999157;29;20116;-68
2021/04/18 06:25:03;;;;;;;12.40;3.70;;;;;;;-146.18;100.00;67994.34;10010715;29;20885;-71
2021/04/18 06:29:59;;;;;;;14.57;3.72;;;;;;;-146.18;100.00;67994.34;10000136;29;20056;-69
2021/04/18 06:34:55;;;;;;;12.93;3.00;;;;;;;-146.18;100.00;67994.34;10000144;29;20498;-68
2021/04/18 06:39:51;;;;;;;11.07;3.95;;;;;;;-146.18;100.00;67994.34;9993897;29;20052;-68
2021/04/18 06:44:47;;;;;;;11.15;3.85;;;;;;;-146.18;100.00;67994.34;9991790;29;20048;-69
2021/04/18 06:49:43;;;;;;;11.77;3.58;;;;;;;-146.18;100.00;67994.34;9995137;29;20056;-68
2021/04/18 06:54:39;;;;;;;15.57;4.63;;;;;;;-146.18;100.00;67994.34;9993547;29;20473;-68
2021/04/18 06:59:37;;;;;;;12.85;4.45;;;;;;;-146.18;100.00;67994.34;9997393;29;20108;-68
2021/04/18 07:04:33;;;;;;;12.25;3.53;;;;;;;-146.18;100.00;67994.34;9998944;29;20144;-68
2021/04/18 07:09:30;;;;;;;11.88;3.42;;;;;;;-146.18;100.00;67994.34;9997184;29;20865;-69
2021/04/18 07:14:33;;;;;;;12.15;3.90;;;;;;;-146.18;100.00;67994.34;9996664;29;20040;-69
2021/04/18 07:19:28;;;;;;;9.23;3.78;;;;;;;-146.18;100.00;67994.34;10006714;29;20080;-64
2021/04/18 07:24:25;;;;;;;11.02;4.45;;;;;;;-146.18;100.00;67994.34;10011028;28;20135;-63
2021/04/18 07:29:21;;;;;;;10.15;4.15;;;;;;;-146.18;100.00;67994.34;9999553;29;20080;-65
2021/04/18 07:34:22;;;;;;;8.10;3.25;;;;;;;-146.18;100.00;67994.34;10011088;29;20044;-65
2021/04/18 07:39:18;;;;;;;15.68;5.30;;;;;;;-146.18;100.00;67994.34;10005283;29;20641;-64
2021/04/18 07:44:18;;;;;;;12.93;5.18;;;;;;;-146.18;100.00;67994.34;9998069;29;20459;-68
2021/04/18 07:49:16;;;;;;;9.65;3.70;;;;;;;-146.18;100.00;67994.34;9988373;29;20080;-67
2021/04/18 07:54:14;;;;;;;15.13;4.13;;;;;;;-146.18;100.00;67994.34;9995683;29;20041;-67
2021/04/18 07:59:13;;;;;;;12.00;4.05;;;;;;;-146.18;100.00;67994.34;9998022;29;20511;-67
2021/04/18 08:04:10;;;;;;;15.13;4.82;;;;;;;-146.18;100.00;67994.34;9998354;29;20079;-66
2021/04/18 08:09:18;;;;;;;12.23;4.45;;;;;;;-146.18;100.00;67994.34;9982831;29;20503;-67
2021/04/18 08:14:16;;;;;;;12.15;3.92;;;;;;;-146.18;100.00;67994.34;9985157;29;20048;-67
2021/04/18 08:19:16;;;;;;;11.50;4.05;;;;;;;-146.18;100.00;67994.34;9990046;29;20052;-66
2021/04/18 08:24:18;;;;;;;11.80;4.57;;;;;;;-146.18;100.00;67994.34;9996702;29;20053;-66
2021/04/18 08:29:14;;;;;;;11.55;5.05;;;;;;;-146.18;100.00;67994.34;9993012;29;20087;-66
2021/04/18 08:34:19;;;;;;;16.17;5.35;;;;;;;-146.18;100.00;67994.34;9992437;29;20048;-66
2021/04/18 08:39:14;;;;;;;14.90;4.88;;;;;;;-146.18;100.00;67994.34;10001721;29;20147;-66
2021/04/18 08:44:24;;;;;;;16.13;6.25;;;;;;;-146.18;100.00;67994.34;10003672;29;20075;-67
2021/04/18 08:49:28;;;;;;;12.60;5.63;;;;;;;-146.18;100.00;67994.34;9997736;29;20060;-65
2021/04/18 08:54:31;;;;;;;14.20;5.75;;;;;;;-146.18;100.00;67994.34;9988558;29;20083;-65
2021/04/18 08:59:27;;;;;;;13.73;5.28;;;;;;;-146.18;100.00;67994.34;9996917;29;20080;-65
2021/04/18 09:04:24;;;;;;;9.68;5.00;;;;;;;-146.18;100.00;67994.34;9982688;29;20040;-66
2021/04/18 09:09:20;;;;;;;15.75;5.40;;;;;;;-146.18;100.00;67994.34;9992296;29;20459;-66
2021/04/18 09:14:22;;;;;;;16.05;5.85;;;;;;;-146.18;100.00;67994.34;9988874;29;20495;-66
2021/04/18 09:19:24;;;;;;;11.75;4.80;;;;;;;-146.18;100.00;67994.34;9992654;29;20044;-66
2021/04/18 09:24:20;;;;;;;10.43;4.97;;;;;;;-146.18;100.00;67994.34;9995337;29;20502;-65
2021/04/18 09:29:16;;;;;;;12.43;5.10;;;;;;;-146.18;100.00;67994.34;9991661;29;20040;-65
2021/04/18 09:34:12;;;;;;;11.15;5.00;;;;;;;-146.18;100.00;67994.34;10001267;29;20082;-65
2021/04/18 09:39:08;;;;;;;9.45;4.93;;;;;;;-146.18;100.00;67994.34;9992579;29;20091;-65
2021/04/18 09:44:06;;;;;;;12.55;4.50;;;;;;;-146.18;100.00;67994.34;9996137;29;20059;-65
2021/04/18 09:49:02;;;;;;;10.60;4.82;;;;;;;-146.18;100.00;67994.34;9988488;29;20070;-66
2021/04/18 09:54:04;;;;;;;11.15;4.25;;;;;;;-146.18;100.00;67994.34;9997813;29;20060;-66
2021/04/18 09:59:16;;;;;;;10.52;4.15;;;;;;;-146.18;100.00;67994.34;9997482;29;20082;-66
2021/04/18 10:04:24;;;;;;;9.75;3.80;;;;;;;-146.18;100.00;67994.34;9995833;29;20095;-65
2021/04/18 10:09:20;;;;;;;11.40;5.05;;;;;;;-146.18;100.00;67994.34;10004777;29;20071;-66
2021/04/18 10:14:19;;;;;;;8.43;3.70;;;;;;;-146.18;100.00;67994.34;9992245;29;20052;-67
2021/04/18 10:19:16;;;;;;;6.15;3.55;;;;;;;-146.18;100.00;67994.34;10000158;29;20052;-66
2021/04/18 10:24:32;;;;;;;12.80;3.75;;;;;;;-146.18;100.00;67994.34;9991445;29;20462;-65
2021/04/18 10:29:29;;;;;;;14.60;4.75;;;;;;;-146.18;100.00;67994.34;9993503;29;20040;-65
2021/04/18 10:34:28;;;;;;;8.00;3.17;;;;;;;-146.18;100.00;67994.34;9979345;29;20095;-66
2021/04/18 10:39:24;;;;;;;12.43;3.63;;;;;;;-146.18;100.00;67994.34;9987690;29;20043;-67
2021/04/18 10:44:21;;;;;;;10.30;4.43;;;;;;;-146.18;100.00;67994.34;9997890;29;20048;-66
2021/04/18 10:49:18;;;;;;;11.70;4.85;;;;;;;-146.18;100.00;67994.34;9998239;29;20087;-66
2021/04/18 10:54:16;;;;;;;9.18;4.60;;;;;;;-146.18;100.00;67994.34;9997720;29;20060;-66
2021/04/18 10:59:13;;;;;;;8.30;4.55;;;;;;;-146.18;100.00;67994.34;10006029;29;20070;-67
2021/04/18 11:04:10;;;;;;;9.38;4.20;;;;;;;-146.18;100.00;67994.34;10004851;29;20072;-67
2021/04/18 11:09:07;;;;;;;6.80;3.17;;;;;;;-146.18;100.00;67994.34;10010275;29;20460;-66
2021/04/18 11:14:04;;;;;;;8.85;4.40;;;;;;;-146.18;100.00;67994.34;10009652;29;20649;-66
2021/04/18 11:19:01;;;;;;;10.30;4.95;;;;;;;-146.18;100.00;67994.34;10000983;29;20052;-66
2021/04/18 11:23:57;;;;;;;8.13;3.80;;;;;;;-146.18;100.00;67994.34;9996987;29;20044;-66
2021/04/18 11:28:56;;;;;;;9.63;5.05;;;;;;;-146.18;100.00;67994.34;9992145;29;20056;-66
2021/04/18 11:33:52;;;;;;;9.35;4.75;;;;;;;-146.18;100.00;67994.34;9988392;29;20467;-67
2021/04/18 11:38:49;;;;;;;8.57;4.97;;;;;;;-146.18;100.00;67994.34;9989786;29;20482;-70
2021/04/18 11:44:00;;;;;;;10.73;5.20;;;;;;;-146.18;100.00;67994.34;9991447;29;20142;-68
2021/04/18 11:49:00;;;;;;;12.10;5.15;;;;;;;-146.18;100.00;67994.34;9995904;29;20498;-65
2021/04/18 11:53:56;;;;;;;11.45;4.72;;;;;;;-146.18;100.00;67994.34;9991689;29;20047;-67
2021/04/18 11:58:52;;;;;;;11.80;4.15;;;;;;;-146.18;100.00;67994.34;9997623;29;20044;-67
2021/04/18 12:03:48;;;;;;;9.90;4.68;;;;;;;-146.18;100.00;67994.34;9999125;29;20542;-67
2021/04/18 12:08:45;;;;;;;8.63;4.43;;;;;;;-146.18;100.00;67994.34;9985639;29;20055;-68
2021/04/18 12:13:41;;;;;;;9.00;4.55;;;;;;;-146.18;100.00;67994.34;9991906;29;20055;-67
2021/04/18 12:18:38;;;;;;;8.40;4.20;;;;;;;-146.18;100.00;67994.34;9992265;29;20055;-68
2021/04/18 12:23:35;;;;;;;8.57;4.88;;;;;;;-146.18;100.00;67994.34;9973507;29;20051;-67
2021/04/18 12:28:32;;;;;;;10.35;5.32;;;;;;;-146.18;100.00;67994.34;9974779;29;20167;-65
2021/04/18 12:33:28;;;;;;;7.90;4.55;;;;;;;-146.18;100.00;67994.34;9992317;29;20048;-68
2021/04/18 12:38:24;;;;;;;9.25;4.60;;;;;;;-146.18;100.00;67994.34;9982725;29;20563;-68
2021/04/18 12:43:20;;;;;;;9.45;4.90;;;;;;;-146.18;100.00;67994.34;9998021;29;20099;-68
2021/04/18 12:48:16;;;;;;;543.20;42.13;;;;;;;-146.18;100.00;67994.34;9985105;29;20055;-66
2021/04/18 12:53:13;;;;;;;23.17;4.20;;;;;;;-146.18;100.00;67994.34;9987405;29;20104;-65
2021/04/18 12:58:09;;;;;;;8.55;4.43;;;;;;;-146.18;100.00;67994.34;9994412;29;20052;-66
2021/04/18 13:03:05;;;;;;;10.75;4.47;;;;;;;-146.18;100.00;67994.34;9991531;29;20056;-65
2021/04/18 13:08:02;;;;;;;8.23;4.35;;;;;;;-146.18;100.00;67994.34;9986509;29;20072;-66
2021/04/18 13:12:58;;;;;;;8.57;4.55;;;;;;;-146.18;100.00;67994.34;9998866;29;20128;-68
2021/04/18 13:17:54;;;;;;;8.73;4.25;;;;;;;-146.18;100.00;67994.34;9994019;29;20055;-68
2021/04/18 13:22:53;;;;;;;9.40;4.88;;;;;;;-146.18;100.00;67994.34;10019395;29;20554;-68
2021/04/18 13:27:49;;;;;;;11.52;4.35;;;;;;;-146.18;100.00;67994.34;9996877;29;20053;-68
2021/04/18 13:32:45;;;;;;;8.43;4.10;;;;;;;-146.18;100.00;67994.34;9988446;29;20066;-66
2021/04/18 13:37:43;;;;;;;9.55;4.32;;;;;;;-146.18;100.00;67994.34;9998748;29;20059;-66
2021/04/18 13:42:39;;;;;;;9.88;4.60;;;;;;;-146.18;100.00;67994.34;9994729;29;20047;-65
2021/04/18 13:47:36;;;;;;;7.68;3.80;;;;;;;-146.18;100.00;67994.34;9997739;29;20056;-65
2021/04/18 13:52:32;;;;;;;9.00;3.72;;;;;;;-146.18;100.00;67994.34;10004797;29;20067;-65
2021/04/18 13:57:28;;;;;;;11.50;4.13;;;;;;;-146.18;100.00;67994.34;9989642;29;20421;-65
2021/04/18 14:02:27;;;;;;;7.20;3.38;;;;;;;-146.18;100.00;67994.34;9985995;29;20056;-65
2021/04/18 14:07:23;;;;;;;8.40;3.47;;;;;;;-146.18;100.00;67994.34;9989179;29;20044;-67
2021/04/18 14:12:19;;;;;;;8.10;3.80;;;;;;;-146.18;100.00;67994.34;9982977;29;20044;-65
2021/04/18 14:17:18;;;;;;;7.25;3.97;;;;;;;-146.18;100.00;67994.34;9991415;29;20143;-66
2021/04/18 14:22:15;;;;;;;8.38;4.05;;;;;;;-146.18;100.00;67994.34;9995741;29;20068;-66
2021/04/18 14:27:11;;;;;;;11.63;4.03;;;;;;;-146.18;100.00;67994.34;9998144;29;20769;-66
2021/04/18 14:32:07;;;;;;;8.20;4.28;;;;;;;-146.18;100.00;67994.34;9992725;29;20096;-65
2021/04/18 14:37:03;;;;;;;10.00;4.63;;;;;;;-146.18;100.00;67994.34;10001745;29;20051;-68
2021/04/18 14:41:59;;;;;;;9.77;4.00;;;;;;;-146.18;100.00;67994.34;10000997;29;20056;-69
2021/04/18 14:46:55;;;;;;;11.32;4.68;;;;;;;-146.18;100.00;67994.34;9998380;29;20052;-70
2021/04/18 14:51:51;;;;;;;8.25;3.67;;;;;;;-146.18;100.00;67994.34;10000812;29;20838;-69
2021/04/18 14:56:48;;;;;;;9.20;3.63;;;;;;;-146.18;100.00;67994.34;9999124;29;20048;-68
2021/04/18 15:01:45;;;;;;;8.75;3.78;;;;;;;-146.18;100.00;67994.34;9992959;29;20668;-69
2021/04/18 15:06:41;;;;;;;8.15;3.92;;;;;;;-146.18;100.00;67994.34;9995505;29;20056;-71
2021/04/18 15:11:37;;;;;;;7.70;4.00;;;;;;;-146.18;100.00;67994.34;10012297;29;20091;-69
2021/04/18 15:16:34;;;;;;;38.80;34.70;;;;;;;-146.18;100.00;67994.34;9981957;29;20540;-70
2021/04/18 15:21:30;;;;;;;8.57;3.70;;;;;;;-146.18;100.00;67994.34;9994321;29;20094;-71
2021/04/18 15:26:26;;;;;;;13.40;7.10;;;;;;;-146.18;100.00;67994.34;9990119;29;20116;-71
2021/04/18 15:31:22;;;;;;;10.20;5.15;;;;;;;-146.18;100.00;67994.34;9996755;29;20056;-71
2021/04/18 15:36:19;;;;;;;13.23;8.63;;;;;;;-146.18;100.00;67994.34;9990069;29;20080;-71
2021/04/18 15:41:16;;;;;;;8.85;5.32;;;;;;;-146.18;100.00;67994.34;10013756;29;20048;-70
2021/04/18 15:46:12;;;;;;;10.30;5.35;;;;;;;-146.18;100.00;67994.34;9988885;29;20076;-70
2021/04/18 15:51:10;;;;;;;66.72;53.75;;;;;;;-146.18;100.00;67994.34;9993507;29;20423;-68
2021/04/18 15:56:08;;;;;;;77.28;45.75;;;;;;;-146.18;100.00;67994.34;9989185;29;20052;-68
2021/04/18 16:01:05;;;;;;;20.90;13.85;;;;;;;-146.18;100.00;67994.34;9996358;29;20064;-69
2021/04/18 16:06:03;;;;;;;14.18;6.22;;;;;;;-146.18;100.00;67994.34;9999927;29;20063;-67
2021/04/18 16:10:59;;;;;;;73.78;46.10;;;;;;;-146.18;100.00;67994.34;9991438;29;20052;-67
2021/04/18 16:15:56;;;;;;;21.75;11.25;;;;;;;-146.18;100.00;67994.34;9999894;29;20071;-67
2021/04/18 16:20:53;;;;;;;14.75;9.35;;;;;;;-146.18;100.00;67994.34;10002443;29;20071;-67
2021/04/18 16:25:49;;;;;;;9.20;4.55;;;;;;;-146.18;100.00;67994.34;9988272;29;20502;-67
2021/04/18 16:30:45;;;;;;;8.23;4.32;;;;;;;-146.18;100.00;67994.34;9996355;29;20052;-67
2021/04/18 16:35:41;;;;;;;7.80;4.03;;;;;;;-146.18;100.00;67994.34;9986575;29;20060;-67
2021/04/18 16:40:37;;;;;;;7.85;3.53;;;;;;;-146.18;100.00;67994.34;9993605;29;20052;-68
2021/04/18 16:45:33;;;;;;;7.50;3.28;;;;;;;-146.18;100.00;67994.34;9987952;29;20052;-68
2021/04/18 16:50:30;;;;;;;8.00;3.30;;;;;;;-146.18;100.00;67994.34;9984045;29;20055;-68
2021/04/18 16:55:26;;;;;;;8.80;2.70;;;;;;;-146.18;100.00;67994.34;9993619;29;20597;-67
2021/04/18 17:00:23;;;;;;;9.18;2.88;;;;;;;-146.18;100.00;67994.34;9984637;29;20051;-67
2021/04/18 17:05:19;;;;;;;7.78;2.60;;;;;;;-146.18;100.00;67994.34;9986227;29;20041;-66
2021/04/18 17:10:16;;;;;;;7.95;2.40;;;;;;;-146.18;100.00;67994.34;9987235;29;20063;-67
2021/04/18 17:15:12;;;;;;;6.75;2.60;;;;;;;-146.18;100.00;67994.34;9995930;29;20277;-68
2021/04/18 17:20:14;;;;;;;8.60;2.60;;;;;;;-146.18;100.00;67994.34;9995600;29;20052;-68
2021/04/18 17:25:11;;;;;;;9.05;2.38;;;;;;;-146.18;100.00;67994.34;9990238;29;20103;-67
2021/04/18 17:30:10;;;;;;;6.85;2.38;;;;;;;-146.18;100.00;67994.34;9986597;29;20059;-67
2021/04/18 17:35:07;;;;;;;6.38;2.30;;;;;;;-146.18;100.00;67994.34;9987494;29;20562;-67
2021/04/18 17:40:05;;;;;;;6.55;2.03;;;;;;;-146.18;100.00;67994.34;9985144;29;20048;-67
2021/04/18 17:45:02;;;;;;;7.00;2.53;;;;;;;-146.18;100.00;67994.34;9984516;29;20064;-67
2021/04/18 17:49:59;;;;;;;6.88;2.22;;;;;;;-146.18;100.00;67994.34;9996921;29;20088;-67
2021/04/18 17:54:55;;;;;;;9.88;2.38;;;;;;;-146.18;100.00;67994.34;10001987;29;20052;-66
2021/04/18 17:59:51;;;;;;;7.50;2.17;;;;;;;-146.18;100.00;67994.34;9994590;29;20064;-66
2021/04/18 18:04:48;;;;;;;7.07;2.38;;;;;;;-146.18;100.00;67994.34;10002653;29;20080;-66
2021/04/18 18:09:44;;;;;;;12.10;2.72;;;;;;;-146.18;100.00;67994.34;9996674;29;20048;-66
2021/04/18 18:14:40;;;;;;;9.60;2.38;;;;;;;-146.18;100.00;67994.34;9998074;29;20055;-68
2021/04/18 18:19:36;;;;;;;6.38;2.50;;;;;;;-146.18;100.00;67994.34;9984247;29;20115;-68
2021/04/18 18:24:32;;;;;;;8.27;2.80;;;;;;;-146.18;100.00;67994.34;9999263;29;20107;-66
2021/04/18 18:29:28;;;;;;;6.45;2.42;;;;;;;-146.18;100.00;67994.34;9999547;29;20103;-67
2021/04/18 18:34:25;;;;;;;7.82;2.55;;;;;;;-146.18;100.00;67994.34;9989045;29;20151;-67
2021/04/18 18:39:21;;;;;;;8.38;2.70;;;;;;;-146.18;100.00;67994.34;9988111;29;20052;-67
2021/04/18 18:44:18;;;;;;;7.47;2.55;;;;;;;-146.18;100.00;67994.34;9995880;29;20056;-67
2021/04/18 18:49:14;;;;;;;6.20;2.25;;;;;;;-146.18;100.00;67994.34;9996657;29;20060;-67
2021/04/18 18:54:10;;;;;;;9.05;2.67;;;;;;;-146.18;100.00;67994.34;10000225;29;20052;-67
2021/04/18 18:59:06;;;;;;;7.03;2.65;;;;;;;-146.18;100.00;67994.34;9990698;29;20107;-67
2021/04/18 19:04:03;;;;;;;10.40;2.63;;;;;;;-146.18;100.00;67994.34;9987397;29;20479;-67
2021/04/18 19:08:59;;;;;;;10.40;3.00;;;;;;;-146.18;100.00;67994.34;9998207;29;20067;-67
2021/04/18 19:13:55;;;;;;;9.85;3.20;;;;;;;-146.18;100.00;67994.34;9993427;29;20136;-68
2021/04/18 19:18:52;;;;;;;8.75;3.05;;;;;;;-146.18;100.00;67994.34;10004053;29;20083;-68
2021/04/18 19:23:48;;;;;;;7.32;2.53;;;;;;;-146.18;100.00;67994.34;9993360;29;20048;-68
2021/04/18 19:28:44;;;;;;;8.15;3.05;;;;;;;-146.18;100.00;67994.34;9979472;29;20845;-68
2021/04/18 19:33:41;;;;;;;11.27;3.28;;;;;;;-146.18;100.00;67994.34;9972174;29;21890;-70
2021/04/18 19:38:38;;;;;;;14.77;4.00;;;;;;;-146.18;100.00;67994.34;9985339;29;20051;-70
2021/04/18 19:43:35;;;;;;;9.82;3.67;;;;;;;-146.18;100.00;67994.34;9983533;29;20538;-66
2021/04/18 19:48:32;;;;;;;9.95;3.60;;;;;;;-146.18;100.00;67994.34;10003098;29;20047;-68
2021/04/18 19:53:28;;;;;;;9.05;3.40;;;;;;;-146.18;100.00;67994.34;9990286;29;20052;-69
2021/04/18 19:58:24;;;;;;;8.82;3.90;;;;;;;-146.18;100.00;67994.34;9999743;29;20106;-69
2021/04/18 20:03:20;;;;;;;8.30;3.60;;;;;;;-146.18;100.00;67994.34;9985800;29;20044;-71
2021/04/18 20:08:17;;;;;;;10.15;3.92;;;;;;;-146.18;100.00;67994.34;9989158;29;20131;-70
2021/04/18 20:13:13;;;;;;;12.38;4.88;;;;;;;-146.18;100.00;67994.34;9994304;28;20052;-72
2021/04/18 20:18:09;;;;;;;12.23;4.32;;;;;;;-146.18;100.00;67994.34;10000376;29;20055;-70
2021/04/18 20:23:05;;;;;;;11.82;4.53;;;;;;;-146.18;100.00;67994.34;9979397;29;20068;-70
2021/04/18 20:28:01;;;;;;;11.52;4.10;;;;;;;-146.18;100.00;67994.34;9987545;29;20063;-71
2021/04/18 20:32:57;;;;;;;17.35;4.60;;;;;;;-146.18;100.00;67994.34;9984174;29;20048;-71
2021/04/18 20:37:54;;;;;;;10.70;4.32;;;;;;;-146.18;100.00;67994.34;9986745;29;20075;-71
2021/04/18 20:43:02;;;;;;;10.60;4.78;;;;;;;-146.18;100.00;67994.34;9985224;29;20495;-70
2021/04/18 20:47:58;;;;;;;11.95;4.57;;;;;;;-146.18;100.00;67994.34;9992275;29;20094;-71
2021/04/18 20:52:54;;;;;;;12.00;4.80;;;;;;;-146.18;100.00;67994.34;9992830;29;20043;-69
2021/04/18 20:57:56;;;;;;;13.77;5.30;;;;;;;-146.18;100.00;67994.34;9998660;29;20078;-69
2021/04/18 21:02:53;;;;;;;9.48;4.72;;;;;;;-146.18;100.00;67994.34;9988475;29;20573;-70
2021/04/18 21:07:49;;;;;;;15.23;5.00;;;;;;;-146.18;100.00;67994.34;9990638;29;20052;-70
2021/04/18 21:12:46;;;;;;;14.30;5.18;;;;;;;-146.18;100.00;67994.34;9987776;29;20108;-70
2021/04/18 21:17:42;;;;;;;11.68;4.22;;;;;;;-146.18;100.00;67994.34;9999438;29;20075;-69
2021/04/18 21:22:39;;;;;;;14.93;5.80;;;;;;;-146.18;100.00;67994.34;10000517;29;20044;-69
2021/04/18 21:27:35;;;;;;;14.10;5.47;;;;;;;-146.18;100.00;67994.34;9999479;29;20577;-71
2021/04/18 21:32:31;;;;;;;16.02;5.38;;;;;;;-146.18;100.00;67994.34;9995205;29;20519;-71
2021/04/18 21:37:28;;;;;;;12.32;4.90;;;;;;;-146.18;100.00;67994.34;9991478;29;20044;-73
2021/04/18 21:42:24;;;;;;;14.30;5.45;;;;;;;-146.18;100.00;67994.34;9989926;29;20174;-70
2021/04/18 21:47:21;;;;;;;13.30;5.45;;;;;;;-146.18;100.00;67994.34;9994506;29;20705;-69
2021/04/18 21:52:18;;;;;;;16.35;7.10;;;;;;;-146.18;100.00;67994.34;9998685;29;20451;-69
2021/04/18 21:57:14;;;;;;;10.25;5.70;;;;;;;-146.18;100.00;67994.34;9994801;29;20104;-68
2021/04/18 22:02:10;;;;;;;15.70;6.93;;;;;;;-146.18;100.00;67994.34;10006989;29;20408;-69
2021/04/18 22:07:07;;;;;;;15.85;6.18;;;;;;;-146.18;100.00;67994.34;9991131;29;20535;-68
2021/04/18 22:12:04;;;;;;;13.77;6.63;;;;;;;-146.18;100.00;67994.34;9995786;29;20111;-70
2021/04/18 22:17:00;;;;;;;12.70;7.05;;;;;;;-146.18;100.00;67994.34;9999062;29;20048;-69
2021/04/18 22:21:57;;;;;;;15.57;7.72;;;;;;;-146.18;100.00;67994.34;10005554;29;20071;-68